Time;durP1;ratioP1;P1;durP2;ratioP2;P2;SDS_P1;SDS_P2;PMS_P1;PMS_P2;Temp;Humidity;BMP_temperature;BMP_pressure;BME280_temperature;BME280_humidity;BME280_pressure;Samples;Min_cycle;Max_cycle;Signal;HPM_P1;HPM_P2
2022/12/06 00:02:14;;;;;;;4.90;1.77;;;;;;;;;;5073629;27;88424;-62
2022/12/06 00:04:42;;;;;;;1.53;1.43;;;;;;;;;;5061387;27;87005;-62
2022/12/06 00:07:12;;;;;;;8.17;1.87;;;;;;;;;;5062146;27;86809;-62
2022/12/06 00:09:40;;;;;;;2.43;1.30;;;;;;;;;;5068596;27;89219;-62
2022/12/06 00:12:08;;;;;;;1.80;1.27;;;;;;;;;;5082221;27;87827;-62
2022/12/06 00:14:37;;;;;;;1.13;0.80;;;;;;;;;;5082041;27;88044;-62
2022/12/06 00:17:07;;;;;;;2.37;1.10;;;;;;;;;;5082881;27;87155;-62
2022/12/06 00:19:35;;;;;;;1.93;0.90;;;;;;;;;;5081219;27;87833;-62
2022/12/06 00:22:04;;;;;;;2.00;1.33;;;;;;;;;;5081856;27;87786;-62
2022/12/06 00:24:32;;;;;;;1.50;1.27;;;;;;;;;;5081784;27;87439;-61
2022/12/06 00:27:01;;;;;;;0.77;0.77;;;;;;;;;;5082174;27;87086;-62
2022/12/06 00:29:29;;;;;;;1.10;1.00;;;;;;;;;;5082195;27;87060;-62
2022/12/06 00:31:58;;;;;;;1.17;1.07;;;;;;;;;;5082367;27;88959;-62
2022/12/06 00:34:28;;;;;;;1.40;0.90;;;;;;;;;;5083005;27;87087;-62
2022/12/06 00:36:56;;;;;;;3.97;0.90;;;;;;;;;;5082695;27;86914;-62
2022/12/06 00:39:25;;;;;;;1.33;1.10;;;;;;;;;;5080925;27;88051;-62
2022/12/06 00:41:55;;;;;;;1.10;1.00;;;;;;;;;;5082071;27;89636;-62
2022/12/06 00:44:23;;;;;;;1.23;1.03;;;;;;;;;;5081581;27;87079;-63
2022/12/06 00:46:52;;;;;;;1.10;0.80;;;;;;;;;;5081979;27;87007;-62
2022/12/06 00:49:20;;;;;;;2.77;1.47;;;;;;;;;;5081432;27;87958;-62
2022/12/06 00:51:50;;;;;;;0.90;0.90;;;;;;;;;;5081483;27;87002;-62
2022/12/06 00:54:19;;;;;;;1.13;0.90;;;;;;;;;;5082173;27;87014;-61
2022/12/06 00:56:47;;;;;;;1.53;1.00;;;;;;;;;;5082364;27;86361;-62
2022/12/06 00:59:16;;;;;;;1.60;1.20;;;;;;;;;;5081224;27;89269;-61
2022/12/06 01:01:44;;;;;;;1.53;1.10;;;;;;;;;;5081611;27;88902;-62
2022/12/06 01:04:13;;;;;;;1.27;1.00;;;;;;;;;;5081354;27;87991;-62
2022/12/06 01:06:41;;;;;;;1.80;0.90;;;;;;;;;;5081703;27;87052;-62
2022/12/06 01:09:11;;;;;;;1.17;1.07;;;;;;;;;;5081336;27;87995;-62
2022/12/06 01:11:39;;;;;;;2.53;1.03;;;;;;;;;;5061896;27;87460;-62
2022/12/06 01:14:08;;;;;;;1.13;0.90;;;;;;;;;;5061743;27;86914;-62
2022/12/06 01:16:36;;;;;;;1.00;0.87;;;;;;;;;;5061419;27;87152;-61
2022/12/06 01:19:06;;;;;;;2.30;1.43;;;;;;;;;;5061342;27;88066;-61
2022/12/06 01:21:34;;;;;;;1.57;0.90;;;;;;;;;;5061379;27;88963;-62
2022/12/06 01:24:02;;;;;;;2.10;1.30;;;;;;;;;;5061248;27;87080;-62
2022/12/06 01:26:32;;;;;;;3.00;1.17;;;;;;;;;;5061404;27;87045;-61
2022/12/06 01:29:00;;;;;;;1.13;0.70;;;;;;;;;;5060609;27;88768;-62
2022/12/06 01:31:29;;;;;;;1.43;1.00;;;;;;;;;;5060646;27;88951;-62
2022/12/06 01:34:05;;;;;;;1.37;1.20;;;;;;;;;;5061161;27;87438;-62
2022/12/06 01:36:33;;;;;;;2.17;0.83;;;;;;;;;;5061294;27;87063;-61
2022/12/06 01:39:05;;;;;;;0.87;0.70;;;;;;;;;;5060660;27;87821;-62
2022/12/06 01:41:35;;;;;;;0.93;0.93;;;;;;;;;;5060153;27;87834;-63
2022/12/06 01:44:03;;;;;;;0.97;0.90;;;;;;;;;;5060959;27;87082;-61
2022/12/06 01:46:32;;;;;;;1.37;1.20;;;;;;;;;;5061514;27;86290;-61
2022/12/06 01:49:04;;;;;;;1.53;0.70;;;;;;;;;;5060820;27;89072;-61
2022/12/06 01:51:32;;;;;;;1.70;0.93;;;;;;;;;;5060620;27;88782;-62
2022/12/06 01:54:00;;;;;;;0.73;0.73;;;;;;;;;;5060680;27;87834;-62
2022/12/06 01:56:29;;;;;;;1.73;1.07;;;;;;;;;;5062358;27;87060;-62
2022/12/06 01:58:58;;;;;;;1.70;0.80;;;;;;;;;;5064509;27;87953;-62
2022/12/06 02:01:27;;;;;;;0.60;0.60;;;;;;;;;;5064595;27;88848;-62
2022/12/06 02:03:56;;;;;;;1.10;1.00;;;;;;;;;;5064996;27;87065;-61
2022/12/06 02:06:24;;;;;;;0.70;0.70;;;;;;;;;;5064313;27;87023;-61
2022/12/06 02:08:52;;;;;;;1.73;0.83;;;;;;;;;;5064424;27;87137;-62
2022/12/06 02:11:21;;;;;;;0.90;0.70;;;;;;;;;;5064542;27;88593;-62
2022/12/06 02:13:49;;;;;;;0.80;0.80;;;;;;;;;;5064264;27;87057;-62
2022/12/06 02:16:27;;;;;;;0.80;0.70;;;;;;;;;;5064656;27;87046;-62
2022/12/06 02:18:56;;;;;;;1.13;0.80;;;;;;;;;;5063738;27;89992;-62
2022/12/06 02:21:27;;;;;;;0.70;0.63;;;;;;;;;;5063755;27;88735;-62
2022/12/06 02:24:05;;;;;;;0.90;0.60;;;;;;;;;;5064103;27;87054;-61
2022/12/06 02:26:36;;;;;;;0.90;0.90;;;;;;;;;;5063607;27;87941;-61
2022/12/06 02:29:22;;;;;;;1.30;0.70;;;;;;;;;;5064227;27;87736;-62
2022/12/06 02:31:52;;;;;;;0.83;0.73;;;;;;;;;;5063773;27;87064;-62
2022/12/06 02:34:21;;;;;;;1.37;0.93;;;;;;;;;;5064071;27;86928;-61
2022/12/06 02:36:50;;;;;;;2.57;1.10;;;;;;;;;;5064603;27;86267;-61
2022/12/06 02:39:20;;;;;;;1.07;0.93;;;;;;;;;;5063416;27;88859;-62
2022/12/06 02:41:50;;;;;;;0.97;0.90;;;;;;;;;;5063430;27;87791;-62
2022/12/06 02:44:19;;;;;;;2.87;0.87;;;;;;;;;;5063210;27;88047;-61
2022/12/06 02:46:47;;;;;;;2.50;0.77;;;;;;;;;;5063972;27;87068;-61
2022/12/06 02:49:17;;;;;;;1.40;0.87;;;;;;;;;;5063812;27;89534;-62
2022/12/06 02:51:46;;;;;;;0.53;0.53;;;;;;;;;;5063494;27;88888;-62
2022/12/06 02:54:14;;;;;;;0.70;0.60;;;;;;;;;;5063591;27;86986;-61
2022/12/06 02:56:42;;;;;;;1.97;0.60;;;;;;;;;;5063211;27;87072;-61
2022/12/06 02:59:11;;;;;;;1.93;0.67;;;;;;;;;;5062983;27;87797;-62
2022/12/06 03:01:40;;;;;;;0.60;0.60;;;;;;;;;;5063847;27;89069;-61
2022/12/06 03:04:12;;;;;;;0.53;0.40;;;;;;;;;;5063907;27;87002;-62
2022/12/06 03:06:54;;;;;;;1.63;0.50;;;;;;;;;;5063648;27;87015;-61
2022/12/06 03:09:25;;;;;;;1.27;0.80;;;;;;;;;;5062225;27;90016;-61
2022/12/06 03:11:56;;;;;;;0.73;0.50;;;;;;;;;;5063093;27;87458;-61
2022/12/06 03:14:25;;;;;;;0.40;0.40;;;;;;;;;;5063948;27;87133;-60
2022/12/06 03:16:55;;;;;;;2.00;0.90;;;;;;;;;;5062952;27;87093;-61
2022/12/06 03:19:24;;;;;;;0.60;0.60;;;;;;;;;;5062968;27;87817;-61
2022/12/06 03:21:54;;;;;;;0.23;0.23;;;;;;;;;;5062793;27;87592;-60
2022/12/06 03:24:23;;;;;;;2.73;0.67;;;;;;;;;;5063815;27;86976;-60
2022/12/06 03:26:51;;;;;;;0.80;0.67;;;;;;;;;;5064233;27;86377;-60
2022/12/06 03:29:20;;;;;;;0.43;0.40;;;;;;;;;;5063428;27;88857;-61
2022/12/06 03:31:48;;;;;;;0.47;0.47;;;;;;;;;;5063556;27;88892;-61
2022/12/06 03:34:17;;;;;;;0.53;0.53;;;;;;;;;;5062958;27;87956;-61
2022/12/06 03:36:45;;;;;;;1.20;0.40;;;;;;;;;;5063639;27;86979;-61
2022/12/06 03:39:15;;;;;;;0.40;0.40;;;;;;;;;;5062922;27;88062;-62
2022/12/06 03:41:44;;;;;;;0.87;0.50;;;;;;;;;;5062914;27;88874;-61
2022/12/06 03:44:12;;;;;;;3.57;0.90;;;;;;;;;;5062936;27;87082;-61
2022/12/06 03:46:41;;;;;;;1.13;0.67;;;;;;;;;;5062867;27;86989;-61
2022/12/06 03:49:11;;;;;;;0.53;0.43;;;;;;;;;;5062197;27;89255;-60
2022/12/06 03:51:39;;;;;;;2.40;0.67;;;;;;;;;;5062475;27;88087;-60
2022/12/06 03:54:07;;;;;;;0.80;0.60;;;;;;;;;;5062467;27;86969;-61
2022/12/06 03:56:37;;;;;;;0.40;0.40;;;;;;;;;;5062278;27;87982;-60
2022/12/06 03:59:05;;;;;;;0.47;0.47;;;;;;;;;;5061791;27;89884;-61
2022/12/06 04:01:33;;;;;;;0.40;0.40;;;;;;;;;;5062034;27;88885;-60
2022/12/06 04:04:02;;;;;;;2.00;0.80;;;;;;;;;;5063350;27;86994;-61
2022/12/06 04:06:30;;;;;;;1.37;0.70;;;;;;;;;;5062579;27;87048;-60
2022/12/06 04:11:42;;;;;;;4.20;1.00;;;;;;;;;;5062003;27;88686;-60
2022/12/06 04:14:10;;;;;;;1.27;0.57;;;;;;;;;;5062461;27;86975;-63
2022/12/06 04:19:25;;;;;;;0.73;0.73;;;;;;;;;;5060897;27;89191;-61
2022/12/06 04:24:39;;;;;;;0.30;0.30;;;;;;;;;;5061558;27;87945;-61
2022/12/06 04:40:58;;;;;;;0.90;0.60;;;;;;;;;;5061757;27;88928;-62
2022/12/06 04:43:42;;;;;;;1.07;0.57;;;;;;;;;;5061752;27;89229;-61
2022/12/06 04:46:11;;;;;;;0.50;0.50;;;;;;;;;;5061701;27;87017;-62
2022/12/06 04:48:39;;;;;;;0.50;0.50;;;;;;;;;;5061856;27;87109;-60
2022/12/06 04:51:11;;;;;;;0.47;0.47;;;;;;;;;;5060893;27;90036;-60
2022/12/06 04:53:40;;;;;;;0.50;0.40;;;;;;;;;;5061787;27;89815;-62
2022/12/06 04:56:08;;;;;;;2.03;0.57;;;;;;;;;;5060711;27;87098;-62
2022/12/06 04:58:38;;;;;;;0.43;0.43;;;;;;;;;;5061493;27;86937;-62
2022/12/06 05:01:06;;;;;;;0.90;0.40;;;;;;;;;;5061365;27;89170;-62
2022/12/06 05:03:34;;;;;;;0.50;0.50;;;;;;;;;;5061692;27;89005;-62
2022/12/06 05:06:11;;;;;;;0.50;0.50;;;;;;;;;;5061856;27;87060;-61
2022/12/06 05:08:39;;;;;;;0.57;0.57;;;;;;;;;;5061633;27;86473;-62
2022/12/06 05:11:07;;;;;;;0.50;0.50;;;;;;;;;;5061004;27;89189;-62
2022/12/06 05:13:37;;;;;;;0.40;0.40;;;;;;;;;;5060903;27;88995;-61
2022/12/06 05:16:06;;;;;;;0.20;0.20;;;;;;;;;;5058529;27;88422;-61
2022/12/06 05:18:34;;;;;;;1.70;0.57;;;;;;;;;;5061178;27;87084;-62
2022/12/06 05:21:03;;;;;;;0.20;0.20;;;;;;;;;;5061017;27;88290;-61
2022/12/06 05:23:31;;;;;;;0.53;0.53;;;;;;;;;;5061880;27;88826;-62
2022/12/06 05:26:00;;;;;;;0.67;0.60;;;;;;;;;;5061681;27;86890;-62
2022/12/06 05:28:28;;;;;;;1.60;0.70;;;;;;;;;;5061310;27;86977;-61
2022/12/06 05:30:58;;;;;;;0.40;0.40;;;;;;;;;;5061218;27;88966;-62
2022/12/06 05:33:26;;;;;;;0.53;0.53;;;;;;;;;;5061657;27;88878;-61
2022/12/06 05:35:54;;;;;;;0.40;0.40;;;;;;;;;;5060795;27;87031;-61
2022/12/06 05:38:23;;;;;;;0.40;0.40;;;;;;;;;;5061151;27;87128;-62
2022/12/06 05:40:51;;;;;;;0.73;0.50;;;;;;;;;;5059296;27;89186;-61
2022/12/06 05:43:19;;;;;;;0.40;0.40;;;;;;;;;;5061084;27;89857;-61
2022/12/06 05:45:52;;;;;;;0.57;0.50;;;;;;;;;;5061441;27;86983;-62
2022/12/06 05:48:22;;;;;;;1.03;0.73;;;;;;;;;;5061404;27;87062;-62
2022/12/06 05:50:50;;;;;;;2.13;0.60;;;;;;;;;;5061334;27;88565;-62
2022/12/06 05:53:19;;;;;;;0.40;0.30;;;;;;;;;;5060856;27;87762;-62
2022/12/06 05:55:47;;;;;;;0.30;0.30;;;;;;;;;;5060949;27;87072;-62
2022/12/06 05:58:15;;;;;;;0.30;0.30;;;;;;;;;;5061233;27;86295;-61
2022/12/06 06:00:46;;;;;;;0.80;0.33;;;;;;;;;;5060658;27;86992;-62
2022/12/06 06:03:14;;;;;;;0.60;0.53;;;;;;;;;;5060577;27;88775;-62
2022/12/06 06:05:48;;;;;;;0.30;0.30;;;;;;;;;;5060290;27;87992;-61
2022/12/06 06:08:16;;;;;;;0.30;0.30;;;;;;;;;;5060900;27;87533;-62
2022/12/06 06:10:45;;;;;;;0.30;0.30;;;;;;;;;;5060800;27;89178;-62
2022/12/06 06:13:13;;;;;;;0.40;0.40;;;;;;;;;;5060630;27;87602;-62
2022/12/06 06:15:41;;;;;;;0.40;0.27;;;;;;;;;;5060934;27;87028;-62
2022/12/06 06:18:10;;;;;;;0.40;0.40;;;;;;;;;;5061299;27;87012;-62
2022/12/06 06:20:38;;;;;;;0.50;0.50;;;;;;;;;;5060533;27;88148;-62
2022/12/06 06:23:08;;;;;;;0.40;0.40;;;;;;;;;;5060700;27;88827;-62
2022/12/06 06:25:36;;;;;;;0.70;0.50;;;;;;;;;;5060701;27;87123;-62
2022/12/06 06:28:04;;;;;;;0.57;0.40;;;;;;;;;;5060280;27;86989;-62
2022/12/06 06:30:32;;;;;;;0.50;0.50;;;;;;;;;;5060437;27;89020;-62
2022/12/06 06:33:01;;;;;;;0.20;0.20;;;;;;;;;;5060869;27;90062;-61
2022/12/06 06:35:29;;;;;;;0.63;0.40;;;;;;;;;;5060636;27;86928;-62
2022/12/06 06:37:57;;;;;;;0.43;0.43;;;;;;;;;;5060851;27;87082;-62
2022/12/06 06:40:27;;;;;;;0.30;0.30;;;;;;;;;;5060017;27;89163;-62
2022/12/06 06:42:56;;;;;;;1.30;0.60;;;;;;;;;;5060315;27;87769;-62
2022/12/06 06:45:24;;;;;;;0.30;0.30;;;;;;;;;;5064152;27;87044;-62
2022/12/06 06:47:56;;;;;;;0.40;0.40;;;;;;;;;;5064161;27;86323;-62
2022/12/06 06:50:24;;;;;;;1.13;0.50;;;;;;;;;;5063115;27;89140;-62
2022/12/06 06:52:53;;;;;;;0.53;0.40;;;;;;;;;;5063875;27;88932;-62
2022/12/06 06:55:21;;;;;;;0.30;0.30;;;;;;;;;;5063539;27;88000;-62
2022/12/06 06:57:51;;;;;;;0.30;0.30;;;;;;;;;;5063914;27;87077;-62
2022/12/06 07:00:19;;;;;;;0.30;0.30;;;;;;;;;;5063960;27;87223;-62
2022/12/06 07:02:47;;;;;;;0.63;0.37;;;;;;;;;;5063603;27;87799;-61
2022/12/06 07:05:16;;;;;;;0.30;0.30;;;;;;;;;;5063803;27;87098;-62
2022/12/06 07:07:45;;;;;;;0.57;0.40;;;;;;;;;;5064263;27;86987;-63
2022/12/06 07:10:14;;;;;;;0.70;0.70;;;;;;;;;;5063725;27;88043;-62
2022/12/06 07:12:42;;;;;;;0.33;0.30;;;;;;;;;;5063810;27;87843;-62
2022/12/06 07:15:12;;;;;;;0.97;0.40;;;;;;;;;;5067004;27;86989;-61
2022/12/06 07:17:40;;;;;;;0.30;0.30;;;;;;;;;;5069288;27;86993;-62
2022/12/06 07:20:09;;;;;;;1.47;0.67;;;;;;;;;;5060320;27;90037;-62
2022/12/06 07:22:37;;;;;;;0.40;0.40;;;;;;;;;;5071277;27;89617;-62
2022/12/06 07:25:06;;;;;;;0.20;0.20;;;;;;;;;;5085091;27;86941;-61
2022/12/06 07:27:34;;;;;;;0.47;0.40;;;;;;;;;;5084850;27;87154;-61
2022/12/06 07:30:03;;;;;;;0.67;0.50;;;;;;;;;;5084389;27;88222;-61
2022/12/06 07:32:35;;;;;;;1.43;0.67;;;;;;;;;;5085005;27;87811;-62
2022/12/06 07:35:04;;;;;;;1.80;0.60;;;;;;;;;;5082450;27;87019;-62
2022/12/06 07:37:32;;;;;;;1.60;0.53;;;;;;;;;;5064576;27;86360;-62
2022/12/06 07:40:00;;;;;;;0.70;0.70;;;;;;;;;;5064269;27;89148;-63
2022/12/06 07:45:15;;;;;;;0.33;0.33;;;;;;;;;;5073824;27;88766;-61
2022/12/06 07:47:45;;;;;;;0.50;0.40;;;;;;;;;;5074063;27;88188;-62
2022/12/06 07:50:14;;;;;;;0.30;0.30;;;;;;;;;;5082707;27;88324;-61
2022/12/06 07:52:45;;;;;;;0.93;0.53;;;;;;;;;;5077743;27;87757;-61
2022/12/06 07:55:13;;;;;;;0.43;0.43;;;;;;;;;;5062995;27;86971;-62
2022/12/06 07:57:42;;;;;;;0.83;0.40;;;;;;;;;;5075621;27;87312;-61
2022/12/06 08:00:12;;;;;;;0.40;0.40;;;;;;;;;;5082801;27;88068;-61
2022/12/06 08:02:40;;;;;;;1.03;0.33;;;;;;;;;;5081428;27;88400;-59
2022/12/06 08:05:10;;;;;;;0.40;0.40;;;;;;;;;;5081283;27;87003;-59
2022/12/06 08:07:38;;;;;;;0.37;0.37;;;;;;;;;;5081087;27;88791;-59
2022/12/06 08:10:07;;;;;;;1.27;0.60;;;;;;;;;;5081802;27;90263;-59
2022/12/06 08:12:36;;;;;;;0.30;0.30;;;;;;;;;;5066154;27;88742;-59
2022/12/06 08:15:04;;;;;;;0.67;0.50;;;;;;;;;;5081438;27;87007;-59
2022/12/06 08:17:32;;;;;;;0.30;0.30;;;;;;;;;;5078623;27;87029;-59
2022/12/06 08:20:01;;;;;;;0.33;0.33;;;;;;;;;;5082239;27;88088;-59
2022/12/06 08:22:31;;;;;;;0.77;0.40;;;;;;;;;;5065464;27;86905;-59
2022/12/06 08:24:59;;;;;;;0.40;0.40;;;;;;;;;;5062437;27;87235;-59
2022/12/06 08:27:27;;;;;;;0.50;0.50;;;;;;;;;;5062384;27;86317;-60
2022/12/06 08:29:56;;;;;;;0.40;0.40;;;;;;;;;;5062356;27;89190;-59
2022/12/06 08:32:24;;;;;;;1.23;0.80;;;;;;;;;;5077589;27;88893;-58
2022/12/06 08:34:52;;;;;;;0.67;0.40;;;;;;;;;;5061632;27;88017;-59
2022/12/06 08:37:21;;;;;;;0.37;0.37;;;;;;;;;;5075129;27;87061;-59
2022/12/06 08:39:50;;;;;;;0.83;0.77;;;;;;;;;;5062836;27;87928;-59
2022/12/06 08:42:19;;;;;;;0.50;0.50;;;;;;;;;;5064336;27;88001;-59
2022/12/06 08:44:53;;;;;;;0.40;0.40;;;;;;;;;;5082525;27;87073;-59
2022/12/06 08:47:21;;;;;;;0.50;0.50;;;;;;;;;;5066575;27;87509;-59
2022/12/06 08:49:50;;;;;;;0.57;0.43;;;;;;;;;;5080465;27;89144;-59
2022/12/06 08:52:18;;;;;;;0.53;0.50;;;;;;;;;;5081483;27;87744;-59
2022/12/06 08:54:46;;;;;;;0.93;0.70;;;;;;;;;;5077941;27;89138;-59
2022/12/06 08:57:16;;;;;;;0.27;0.27;;;;;;;;;;5074506;27;87102;-59
2022/12/06 08:59:45;;;;;;;0.50;0.40;;;;;;;;;;5081239;27;89888;-59
2022/12/06 09:02:13;;;;;;;0.30;0.30;;;;;;;;;;5075834;27;89718;-59
2022/12/06 09:04:42;;;;;;;0.40;0.40;;;;;;;;;;5068012;27;87623;-59
2022/12/06 09:07:10;;;;;;;0.40;0.40;;;;;;;;;;5067530;27;89194;-60
2022/12/06 09:09:39;;;;;;;0.60;0.60;;;;;;;;;;5062601;27;88084;-59
2022/12/06 09:12:08;;;;;;;0.43;0.43;;;;;;;;;;5065813;27;88402;-58
2022/12/06 09:14:38;;;;;;;0.70;0.43;;;;;;;;;;5077111;27;87014;-59
2022/12/06 09:17:06;;;;;;;0.47;0.40;;;;;;;;;;5060798;27;86306;-59
2022/12/06 09:19:34;;;;;;;0.53;0.50;;;;;;;;;;5082213;27;89131;-58
2022/12/06 09:22:03;;;;;;;0.47;0.40;;;;;;;;;;5065120;27;87944;-60
2022/12/06 09:24:31;;;;;;;0.87;0.80;;;;;;;;;;5056005;27;88014;-59
2022/12/06 09:26:59;;;;;;;0.80;0.60;;;;;;;;;;5041381;27;87006;-58
2022/12/06 09:29:27;;;;;;;1.33;0.90;;;;;;;;;;5065455;27;88968;-58
2022/12/06 09:31:57;;;;;;;0.80;0.43;;;;;;;;;;5080238;27;88068;-58
2022/12/06 09:34:25;;;;;;;1.33;0.80;;;;;;;;;;5059288;27;87193;-58
2022/12/06 09:36:55;;;;;;;2.47;0.70;;;;;;;;;;5040282;27;87188;-58
2022/12/06 09:39:25;;;;;;;0.50;0.50;;;;;;;;;;5040400;27;89416;-58
2022/12/06 09:42:17;;;;;;;0.30;0.30;;;;;;;;;;5040581;27;87512;-58
2022/12/06 09:44:49;;;;;;;0.70;0.40;;;;;;;;;;5040931;28;86981;-59
2022/12/06 09:47:21;;;;;;;0.63;0.60;;;;;;;;;;5040869;28;87060;-58
2022/12/06 09:49:52;;;;;;;0.60;0.33;;;;;;;;;;5040230;28;90462;-60
2022/12/06 09:52:27;;;;;;;0.40;0.40;;;;;;;;;;5040609;27;89747;-59
2022/12/06 09:55:02;;;;;;;0.30;0.30;;;;;;;;;;5040472;27;87023;-60
2022/12/06 09:57:32;;;;;;;0.73;0.73;;;;;;;;;;5040191;27;87197;-59
2022/12/06 10:00:02;;;;;;;0.53;0.53;;;;;;;;;;5040262;28;87966;-59
2022/12/06 10:02:43;;;;;;;1.50;0.97;;;;;;;;;;5040151;27;87655;-58
2022/12/06 10:05:30;;;;;;;1.33;0.60;;;;;;;;;;5040681;28;87005;-60
2022/12/06 10:08:00;;;;;;;1.60;0.97;;;;;;;;;;5040985;27;86316;-60
2022/12/06 10:10:31;;;;;;;1.07;0.60;;;;;;;;;;5040113;27;87870;-58
2022/12/06 10:13:01;;;;;;;0.40;0.40;;;;;;;;;;5046037;27;87951;-58
2022/12/06 10:15:34;;;;;;;3.20;0.93;;;;;;;;;;5060705;27;88347;-58
2022/12/06 10:18:10;;;;;;;2.97;0.50;;;;;;;;;;5061721;27;87064;-60
2022/12/06 10:20:39;;;;;;;1.10;0.80;;;;;;;;;;5063924;27;88249;-58
2022/12/06 10:23:11;;;;;;;1.00;0.60;;;;;;;;;;5064243;27;87769;-59
2022/12/06 10:25:41;;;;;;;1.37;0.80;;;;;;;;;;5064362;27;87136;-59
2022/12/06 10:28:11;;;;;;;1.47;0.83;;;;;;;;;;5064100;27;86974;-58
2022/12/06 10:30:42;;;;;;;0.87;0.87;;;;;;;;;;5064281;27;88134;-58
2022/12/06 10:33:13;;;;;;;3.07;1.13;;;;;;;;;;5064246;27;88766;-58
2022/12/06 10:35:42;;;;;;;0.90;0.90;;;;;;;;;;5064205;27;87040;-58
2022/12/06 10:38:14;;;;;;;1.20;1.00;;;;;;;;;;5064131;27;87136;-58
2022/12/06 10:40:45;;;;;;;2.10;1.30;;;;;;;;;;5063194;27;90045;-58
2022/12/06 10:43:14;;;;;;;1.30;1.20;;;;;;;;;;5063277;27;89772;-58
2022/12/06 10:48:39;;;;;;;1.47;1.37;;;;;;;;;;5064132;27;87085;-59
2022/12/06 10:51:08;;;;;;;1.87;1.67;;;;;;;;;;5063062;27;89146;-58
2022/12/06 10:53:38;;;;;;;2.40;1.83;;;;;;;;;;5063430;27;88643;-58
2022/12/06 10:56:08;;;;;;;3.10;2.30;;;;;;;;;;5063874;27;87074;-58
2022/12/06 10:58:37;;;;;;;2.40;2.20;;;;;;;;;;5053696;27;86852;-58
2022/12/06 11:01:05;;;;;;;2.57;2.37;;;;;;;;;;5066431;27;88435;-58
2022/12/06 11:03:34;;;;;;;2.90;2.70;;;;;;;;;;5084358;27;87958;-58
2022/12/06 11:06:06;;;;;;;3.13;2.90;;;;;;;;;;5069821;27;88047;-58
2022/12/06 11:08:36;;;;;;;3.50;3.20;;;;;;;;;;5055846;27;87056;-58
2022/12/06 11:11:04;;;;;;;4.20;3.73;;;;;;;;;;5043305;27;89202;-60
2022/12/06 11:13:35;;;;;;;4.03;3.73;;;;;;;;;;5048366;27;88992;-59
2022/12/06 11:16:04;;;;;;;4.63;4.10;;;;;;;;;;5068719;27;86971;-61
2022/12/06 11:18:32;;;;;;;5.00;4.53;;;;;;;;;;5083019;27;87105;-59
2022/12/06 11:21:02;;;;;;;5.00;4.60;;;;;;;;;;5062140;27;89195;-59
2022/12/06 11:23:34;;;;;;;5.70;5.20;;;;;;;;;;5063172;27;87972;-59
2022/12/06 11:26:05;;;;;;;6.00;5.40;;;;;;;;;;5063052;27;87157;-58
2022/12/06 11:28:37;;;;;;;6.50;5.90;;;;;;;;;;5062195;27;87065;-58
2022/12/06 11:31:07;;;;;;;7.13;6.53;;;;;;;;;;5062603;27;90316;-58
2022/12/06 11:33:36;;;;;;;7.67;7.00;;;;;;;;;;5063234;27;89584;-58
2022/12/06 11:36:05;;;;;;;9.40;8.50;;;;;;;;;;5063585;27;87114;-58
2022/12/06 11:38:35;;;;;;;8.97;8.17;;;;;;;;;;5063261;27;87100;-58
2022/12/06 11:41:03;;;;;;;9.17;8.37;;;;;;;;;;5062626;27;88092;-58
2022/12/06 11:43:34;;;;;;;9.30;8.40;;;;;;;;;;5062338;27;89045;-58
2022/12/06 11:46:02;;;;;;;10.37;9.40;;;;;;;;;;5062847;27;87127;-58
2022/12/06 11:48:32;;;;;;;10.40;9.50;;;;;;;;;;5063204;27;86307;-58
2022/12/06 11:51:00;;;;;;;11.40;10.30;;;;;;;;;;5062437;27;87881;-58
2022/12/06 11:53:31;;;;;;;11.50;10.50;;;;;;;;;;5062213;27;89064;-58
2022/12/06 11:56:04;;;;;;;11.67;10.67;;;;;;;;;;5061512;27;87957;-58
2022/12/06 11:58:33;;;;;;;12.43;11.30;;;;;;;;;;5061324;27;87078;-58
2022/12/06 12:01:02;;;;;;;12.17;11.07;;;;;;;;;;5061634;27;89310;-58
2022/12/06 12:03:32;;;;;;;12.70;11.50;;;;;;;;;;5062246;27;88782;-58
2022/12/06 12:06:19;;;;;;;12.83;11.73;;;;;;;;;;5061877;27;87078;-59
2022/12/06 12:08:51;;;;;;;13.50;12.30;;;;;;;;;;5062079;27;86996;-59
2022/12/06 12:11:21;;;;;;;14.17;12.77;;;;;;;;;;5062180;27;88270;-58
2022/12/06 12:13:51;;;;;;;14.67;13.17;;;;;;;;;;5061892;27;88796;-59
2022/12/06 12:16:19;;;;;;;15.47;14.07;;;;;;;;;;5061607;27;86982;-58
2022/12/06 12:18:52;;;;;;;14.80;13.50;;;;;;;;;;5061343;27;87063;-58
2022/12/06 12:21:29;;;;;;;15.90;14.40;;;;;;;;;;5061011;27;89112;-58
2022/12/06 12:23:57;;;;;;;16.67;15.17;;;;;;;;;;5061317;27;90057;-58
2022/12/06 12:26:34;;;;;;;17.67;15.87;;;;;;;;;;5061976;27;87066;-58
2022/12/06 12:29:02;;;;;;;19.67;17.60;;;;;;;;;;5061770;27;86968;-59
2022/12/06 12:31:31;;;;;;;18.80;17.10;;;;;;;;;;5061589;27;88978;-58
2022/12/06 12:34:13;;;;;;;263.87;120.43;;;;;;;;;;5061560;27;87126;-57
2022/12/06 12:36:42;;;;;;;455.77;204.93;;;;;;;;;;5060694;27;87057;-58
2022/12/06 12:39:21;;;;;;;428.37;185.27;;;;;;;;;;5056132;27;86409;-59
2022/12/06 12:41:51;;;;;;;370.20;160.50;;;;;;;;;;5070336;27;88212;-59
2022/12/06 12:44:21;;;;;;;321.07;144.63;;;;;;;;;;5072133;27;88828;-58
2022/12/06 12:47:07;;;;;;;275.83;127.80;;;;;;;;;;5040142;27;88030;-58
2022/12/06 12:49:35;;;;;;;245.97;117.80;;;;;;;;;;5040641;27;87080;-57
2022/12/06 12:52:04;;;;;;;260.20;112.67;;;;;;;;;;5039583;28;89129;-60
2022/12/06 12:54:33;;;;;;;227.23;108.83;;;;;;;;;;5047460;27;89208;-61
2022/12/06 12:57:03;;;;;;;215.10;103.30;;;;;;;;;;5080606;27;87244;-60
2022/12/06 12:59:33;;;;;;;207.83;102.57;;;;;;;;;;5066009;27;87843;-60
2022/12/06 13:02:02;;;;;;;201.53;94.20;;;;;;;;;;5068215;27;88194;-57
2022/12/06 13:04:32;;;;;;;168.60;87.73;;;;;;;;;;5065278;27;87865;-57
2022/12/06 13:07:01;;;;;;;171.40;89.57;;;;;;;;;;5076068;27;88716;-58
2022/12/06 13:09:30;;;;;;;157.37;85.03;;;;;;;;;;5078818;27;87050;-57
2022/12/06 13:12:00;;;;;;;155.63;80.77;;;;;;;;;;5060454;27;89107;-57
2022/12/06 13:14:30;;;;;;;142.83;73.40;;;;;;;;;;5060443;27;88928;-57
2022/12/06 13:16:58;;;;;;;137.63;66.53;;;;;;;;;;5054178;27;87065;-57
2022/12/06 13:19:29;;;;;;;119.10;68.47;;;;;;;;;;5058831;27;87277;-57
2022/12/06 13:21:58;;;;;;;130.70;69.40;;;;;;;;;;5058964;27;88268;-57
2022/12/06 13:24:27;;;;;;;127.90;66.90;;;;;;;;;;5059866;27;88835;-57
2022/12/06 13:26:56;;;;;;;113.97;61.57;;;;;;;;;;5060417;27;87091;-57
2022/12/06 13:29:26;;;;;;;119.70;58.83;;;;;;;;;;5060565;27;86335;-58
2022/12/06 13:31:56;;;;;;;110.63;60.43;;;;;;;;;;5059911;27;89113;-57
2022/12/06 13:34:26;;;;;;;109.37;58.73;;;;;;;;;;5060392;27;88976;-57
2022/12/06 13:36:54;;;;;;;99.00;51.00;;;;;;;;;;5055819;27;88001;-57
2022/12/06 13:39:26;;;;;;;96.93;52.20;;;;;;;;;;5052692;27;87057;-57
2022/12/06 13:44:41;;;;;;;93.70;49.17;;;;;;;;;;5049780;27;87894;-57
2022/12/06 13:47:39;;;;;;;80.50;48.57;;;;;;;;;;5060378;27;87023;-58
2022/12/06 13:50:35;;;;;;;88.83;49.23;;;;;;;;;;4997660;28;87245;-57
2022/12/06 13:53:05;;;;;;;78.60;44.00;;;;;;;;;;5024224;27;88015;-59
2022/12/06 13:55:51;;;;;;;75.63;43.23;;;;;;;;;;5064021;27;89159;-57
2022/12/06 13:58:39;;;;;;;75.60;44.53;;;;;;;;;;5063331;27;87183;-57
2022/12/06 14:01:22;;;;;;;74.53;40.40;;;;;;;;;;5063555;27;86975;-57
2022/12/06 14:03:54;;;;;;;66.13;38.43;;;;;;;;;;5062598;27;89042;-57
2022/12/06 14:06:23;;;;;;;63.23;38.93;;;;;;;;;;5063634;27;90141;-58
2022/12/06 14:08:54;;;;;;;50.60;34.17;;;;;;;;;;5063784;27;87056;-58
2022/12/06 14:11:23;;;;;;;57.33;35.80;;;;;;;;;;5063118;27;87123;-57
2022/12/06 14:14:00;;;;;;;50.53;33.47;;;;;;;;;;5062593;27;89363;-57
2022/12/06 14:16:29;;;;;;;50.07;31.07;;;;;;;;;;5063488;27;88048;-57
2022/12/06 14:18:58;;;;;;;54.73;31.63;;;;;;;;;;5063707;27;87208;-57
2022/12/06 14:21:27;;;;;;;45.97;28.33;;;;;;;;;;5063624;27;87343;-57
2022/12/06 14:23:57;;;;;;;45.33;27.87;;;;;;;;;;5063058;27;88017;-58
2022/12/06 14:26:26;;;;;;;50.30;29.90;;;;;;;;;;5062795;27;88943;-58
2022/12/06 14:28:55;;;;;;;44.03;26.83;;;;;;;;;;5062626;27;87983;-57
2022/12/06 14:31:24;;;;;;;41.30;25.67;;;;;;;;;;5063162;27;87378;-58
2022/12/06 14:33:53;;;;;;;40.07;25.73;;;;;;;;;;5062840;27;88116;-58
2022/12/06 14:36:22;;;;;;;38.93;25.23;;;;;;;;;;5062986;27;88993;-57
2022/12/06 14:38:51;;;;;;;32.67;21.97;;;;;;;;;;5062728;27;86939;-57
2022/12/06 14:44:14;;;;;;;38.27;22.67;;;;;;;;;;5063056;27;89096;-58
2022/12/06 14:46:43;;;;;;;40.00;21.93;;;;;;;;;;5063660;27;88978;-58
2022/12/06 14:52:00;;;;;;;28.07;17.83;;;;;;;;;;5062476;27;87140;-57
2022/12/06 14:54:33;;;;;;;32.23;17.37;;;;;;;;;;5062261;27;90152;-57
2022/12/06 14:57:02;;;;;;;24.50;17.00;;;;;;;;;;5062478;27;89885;-58
2022/12/06 14:59:31;;;;;;;23.20;17.43;;;;;;;;;;5062924;27;87129;-58
2022/12/06 15:02:21;;;;;;;25.97;16.33;;;;;;;;;;5062859;27;87020;-58
2022/12/06 15:04:50;;;;;;;27.07;17.23;;;;;;;;;;5061718;27;87746;-57
2022/12/06 15:07:36;;;;;;;25.00;15.57;;;;;;;;;;5062042;27;88791;-58
2022/12/06 15:10:24;;;;;;;20.43;14.20;;;;;;;;;;5052664;27;86987;-58
2022/12/06 15:12:56;;;;;;;17.90;13.60;;;;;;;;;;5063136;27;86308;-59
2022/12/06 15:15:34;;;;;;;20.87;13.77;;;;;;;;;;5062664;27;88211;-58
2022/12/06 15:18:20;;;;;;;15.70;12.10;;;;;;;;;;5062668;27;87610;-58
2022/12/06 15:20:48;;;;;;;18.80;12.43;;;;;;;;;;5061467;27;88015;-58
2022/12/06 15:23:37;;;;;;;17.43;11.97;;;;;;;;;;5062677;27;87030;-58
2022/12/06 15:26:05;;;;;;;17.33;11.97;;;;;;;;;;5062350;27;89177;-58
2022/12/06 15:28:35;;;;;;;15.43;10.83;;;;;;;;;;5061938;27;88941;-58
2022/12/06 15:31:04;;;;;;;16.90;11.70;;;;;;;;;;5061718;27;87181;-58